createdAt,value
2022-10-30T00:01:14.210Z,0.90
2022-10-30T00:07:28.473Z,0.60
2022-10-30T00:13:39.048Z,0.53
2022-10-30T00:19:54.684Z,0.95
2022-10-30T00:26:15.556Z,0.83
2022-10-30T00:32:28.759Z,1.00
2022-10-30T00:38:46.093Z,0.70
2022-10-30T00:44:57.332Z,0.57
2022-10-30T00:51:12.029Z,0.90
2022-10-30T00:57:26.983Z,1.15
2022-10-30T01:03:44.205Z,0.95
2022-10-30T01:09:57.571Z,1.15
2022-10-30T01:16:21.794Z,1.20
2022-10-30T01:22:45.985Z,1.32
2022-10-30T01:29:10.748Z,1.35
2022-10-30T01:35:24.890Z,0.75
2022-10-30T01:41:35.979Z,1.17
2022-10-30T01:47:50.213Z,1.00
2022-10-30T01:54:04.266Z,1.60
2022-10-30T02:00:16.290Z,1.05
2022-10-30T02:06:31.177Z,0.98
2022-10-30T02:12:43.869Z,1.02
2022-10-30T02:18:54.756Z,1.35
2022-10-30T02:25:09.837Z,1.40
2022-10-30T02:31:24.134Z,1.37
2022-10-30T02:37:38.909Z,1.40
2022-10-30T02:43:53.171Z,1.00
2022-10-30T02:50:06.496Z,1.32
2022-10-30T02:56:22.376Z,1.22
2022-10-30T03:02:37.951Z,1.10
2022-10-30T03:08:55.869Z,1.32
2022-10-30T03:15:10.264Z,1.42
2022-10-30T03:21:24.064Z,1.60
2022-10-30T03:27:38.520Z,1.20
2022-10-30T03:33:50.968Z,2.20
2022-10-30T03:40:07.233Z,1.57
2022-10-30T03:46:22.868Z,1.63
2022-10-30T03:52:34.743Z,1.62
2022-10-30T03:58:47.935Z,1.50
2022-10-30T04:05:02.359Z,1.80
2022-10-30T04:11:18.985Z,1.62
2022-10-30T04:23:44.869Z,1.77
2022-10-30T04:30:01.979Z,2.25
2022-10-30T04:36:18.173Z,3.47
2022-10-30T04:42:32.441Z,2.17
2022-10-30T04:48:47.936Z,2.95
2022-10-30T04:55:02.365Z,3.17
2022-10-30T05:01:14.861Z,2.87
2022-10-30T05:07:28.225Z,3.87
2022-10-30T05:13:43.735Z,3.22
2022-10-30T05:19:57.608Z,4.25
2022-10-30T05:26:15.905Z,4.45
2022-10-30T05:32:32.829Z,3.45
2022-10-30T05:38:43.964Z,4.78
2022-10-30T05:45:02.262Z,2.95
2022-10-30T05:51:16.271Z,3.00
2022-10-30T05:57:29.600Z,3.77
2022-10-30T06:03:44.460Z,3.37
2022-10-30T06:09:59.287Z,2.72
2022-10-30T06:16:16.640Z,2.27
2022-10-30T06:22:31.039Z,2.12
2022-10-30T06:28:46.520Z,2.00
2022-10-30T06:35:04.412Z,2.40
2022-10-30T06:41:19.980Z,2.55
2022-10-30T06:47:33.176Z,2.42
2022-10-30T06:53:48.871Z,1.60
2022-10-30T07:00:05.511Z,2.55
2022-10-30T07:06:19.727Z,2.83
2022-10-30T07:12:36.729Z,2.42
2022-10-30T07:18:52.574Z,1.62
2022-10-30T07:25:03.798Z,1.80
2022-10-30T07:31:24.095Z,2.40
2022-10-30T07:37:34.086Z,2.08
2022-10-30T07:43:48.772Z,1.77
2022-10-30T07:50:05.241Z,1.77
2022-10-30T07:56:21.024Z,2.87
2022-10-30T08:02:37.903Z,2.00
2022-10-30T08:08:55.997Z,1.70
2022-10-30T08:15:09.383Z,1.87
2022-10-30T08:21:22.557Z,1.82
2022-10-30T08:27:35.968Z,1.62
2022-10-30T08:33:49.301Z,2.08
2022-10-30T08:40:04.827Z,2.05
2022-10-30T08:46:14.444Z,2.42
2022-10-30T08:52:30.028Z,1.92
2022-10-30T08:58:42.471Z,2.22
2022-10-30T09:04:59.118Z,1.40
2022-10-30T09:11:17.732Z,1.85
2022-10-30T09:17:35.712Z,1.52
2022-10-30T09:23:53.619Z,1.60
2022-10-30T09:30:07.036Z,1.80
2022-10-30T09:36:22.281Z,2.25
2022-10-30T09:42:52.997Z,1.25
2022-10-30T09:49:21.876Z,1.22
2022-10-30T09:55:44.282Z,1.65
2022-10-30T10:02:00.886Z,1.45
2022-10-30T10:08:13.374Z,1.42
2022-10-30T10:14:29.341Z,1.72
2022-10-30T10:20:49.604Z,1.80
2022-10-30T10:27:08.628Z,1.72
2022-10-30T10:33:34.382Z,1.50
2022-10-30T10:39:54.517Z,1.15
2022-10-30T10:46:11.415Z,1.30
2022-10-30T10:52:25.205Z,1.57
2022-10-30T10:58:44.162Z,1.35
2022-10-30T11:05:03.166Z,1.32
2022-10-30T11:11:21.097Z,1.52
2022-10-30T11:17:41.222Z,2.10
2022-10-30T11:23:57.048Z,1.30
2022-10-30T11:30:07.509Z,1.72
2022-10-30T11:36:25.060Z,1.65
2022-10-30T11:42:38.164Z,1.35
2022-10-30T11:48:57.052Z,1.70
2022-10-30T11:55:15.036Z,0.90
2022-10-30T12:01:29.572Z,1.00
2022-10-30T12:07:44.293Z,0.88
2022-10-30T12:13:57.826Z,1.25
2022-10-30T12:20:19.224Z,1.27
2022-10-30T12:26:31.333Z,0.90
2022-10-30T12:32:44.969Z,1.20
2022-10-30T12:39:02.236Z,0.85
2022-10-30T12:45:20.089Z,1.82
2022-10-30T12:51:38.624Z,1.77
2022-10-30T12:57:57.305Z,1.50
2022-10-30T13:04:16.001Z,2.70
2022-10-30T13:10:35.229Z,1.12
2022-10-30T13:16:45.472Z,2.00
2022-10-30T13:23:00.730Z,2.25
2022-10-30T13:29:20.345Z,3.30
2022-10-30T13:35:37.302Z,3.00
2022-10-30T13:41:59.702Z,2.67
2022-10-30T13:48:18.459Z,1.55
2022-10-30T13:54:30.644Z,2.55
2022-10-30T14:01:01.265Z,1.65
2022-10-30T14:07:27.393Z,3.05
2022-10-30T14:13:52.430Z,2.93
2022-10-30T14:20:37.905Z,2.27
2022-10-30T14:26:53.024Z,1.82
2022-10-30T14:33:06.282Z,2.87
2022-10-30T14:39:36.729Z,1.60
2022-10-30T14:45:54.665Z,2.25
2022-10-30T14:52:16.332Z,2.42
2022-10-30T14:58:31.486Z,1.72
2022-10-30T15:04:49.577Z,3.10
2022-10-30T15:11:12.927Z,2.72
2022-10-30T15:17:31.898Z,1.70
2022-10-30T15:23:45.841Z,2.10
2022-10-30T15:30:02.180Z,2.67
2022-10-30T15:36:28.270Z,3.45
2022-10-30T15:42:42.462Z,3.30
2022-10-30T15:48:51.761Z,2.02
2022-10-30T15:55:06.657Z,2.52
2022-10-30T16:01:31.587Z,2.33
2022-10-30T16:07:47.429Z,1.82
2022-10-30T16:14:00.755Z,2.00
2022-10-30T16:20:20.483Z,2.15
2022-10-30T16:26:36.443Z,2.55
2022-10-30T16:32:53.157Z,1.82
2022-10-30T16:39:06.890Z,2.67
2022-10-30T16:52:17.778Z,2.37
2022-10-30T16:58:34.700Z,1.60
2022-10-30T17:04:51.355Z,2.00
2022-10-30T17:17:32.933Z,2.08
2022-10-30T17:23:55.758Z,1.42
2022-10-30T17:30:07.883Z,2.25
2022-10-30T17:36:25.214Z,2.15
2022-10-30T17:42:41.749Z,2.02
2022-10-30T17:55:09.188Z,1.65
2022-10-30T18:01:31.127Z,2.42
2022-10-30T18:07:47.720Z,1.62
2022-10-30T18:20:11.650Z,2.30
2022-10-30T18:26:28.031Z,1.80
2022-10-30T18:32:43.303Z,2.20
2022-10-30T18:38:57.115Z,1.52
2022-10-30T18:45:25.052Z,1.52
2022-10-30T18:51:38.813Z,1.72
2022-10-30T18:57:52.473Z,1.40
2022-10-30T19:04:09.060Z,1.60
2022-10-30T19:16:31.939Z,1.27
2022-10-30T19:22:44.453Z,1.82
2022-10-30T19:28:58.975Z,1.30
2022-10-30T19:35:18.555Z,1.60
2022-10-30T19:41:34.461Z,1.70
2022-10-30T19:47:54.151Z,1.60
2022-10-30T19:54:10.608Z,1.87
2022-10-30T20:00:29.496Z,2.47
2022-10-30T20:06:43.205Z,1.47
2022-10-30T20:13:00.055Z,1.32
2022-10-30T20:19:22.636Z,1.67
2022-10-30T20:25:40.636Z,2.25
2022-10-30T20:31:51.902Z,1.98
2022-10-30T20:38:10.847Z,2.00
2022-10-30T20:44:25.625Z,2.17
2022-10-30T20:50:50.644Z,1.40
2022-10-30T20:57:02.596Z,1.72
2022-10-30T21:03:15.527Z,2.02
2022-10-30T21:09:31.239Z,2.37
2022-10-30T21:15:47.734Z,1.73
2022-10-30T21:21:59.408Z,1.87
2022-10-30T21:28:14.665Z,1.85
2022-10-30T21:34:29.249Z,1.90
2022-10-30T21:40:42.992Z,1.95
2022-10-30T21:46:56.821Z,2.00
2022-10-30T21:53:13.568Z,2.62
2022-10-30T21:59:26.020Z,1.57
2022-10-30T22:05:39.744Z,2.05
2022-10-30T22:11:54.408Z,2.72
2022-10-30T22:18:09.453Z,2.05
2022-10-30T22:24:22.925Z,1.00
2022-10-30T22:30:40.284Z,2.20
2022-10-30T22:36:58.246Z,1.67
2022-10-30T22:43:13.113Z,1.12
2022-10-30T22:49:27.506Z,1.25
2022-10-30T22:55:45.338Z,1.60
2022-10-30T23:02:03.354Z,1.57
2022-10-30T23:08:16.756Z,1.47
2022-10-30T23:14:35.639Z,2.33
2022-10-30T23:20:50.037Z,1.80
2022-10-30T23:27:08.664Z,1.85
2022-10-30T23:33:23.805Z,1.55
2022-10-30T23:39:36.617Z,1.37
2022-10-30T23:45:51.087Z,1.45
2022-10-30T23:52:03.336Z,1.65
